createdAt,value
2018-10-05T00:02:01.212Z,75.10
2018-10-05T00:04:30.768Z,75.35
2018-10-05T00:07:00.332Z,75.30
2018-10-05T00:09:29.984Z,75.52
2018-10-05T00:11:59.959Z,75.05
2018-10-05T00:14:29.555Z,75.19
2018-10-05T00:16:59.471Z,75.31
2018-10-05T00:19:28.983Z,75.56
2018-10-05T00:21:58.617Z,76.00
2018-10-05T00:24:28.325Z,75.37
2018-10-05T00:26:57.851Z,75.24
2018-10-05T00:29:27.594Z,75.57
2018-10-05T00:31:57.288Z,75.75
2018-10-05T00:34:26.932Z,75.62
2018-10-05T00:36:56.637Z,75.98
2018-10-05T00:39:26.158Z,76.16
2018-10-05T00:41:55.688Z,75.85
2018-10-05T00:44:25.242Z,76.03
2018-10-05T00:46:54.771Z,76.16
2018-10-05T00:49:24.335Z,76.54
2018-10-05T00:51:54.053Z,76.06
2018-10-05T00:54:23.695Z,76.05
2018-10-05T00:56:53.491Z,76.19
2018-10-05T00:59:23.124Z,75.58
2018-10-05T01:01:52.771Z,76.92
2018-10-05T01:04:22.379Z,76.64
2018-10-05T01:06:51.922Z,76.09
2018-10-05T01:09:21.463Z,76.52
2018-10-05T01:11:50.996Z,76.85
2018-10-05T01:14:20.607Z,76.57
2018-10-05T01:16:50.141Z,76.07
2018-10-05T01:19:19.945Z,75.94
2018-10-05T01:21:49.484Z,75.62
2018-10-05T01:24:18.987Z,76.13
2018-10-05T01:26:48.837Z,76.10
2018-10-05T01:29:18.634Z,75.96
2018-10-05T01:31:48.244Z,76.26
2018-10-05T01:34:17.772Z,76.46
2018-10-05T01:36:47.496Z,76.01
2018-10-05T01:39:17.124Z,76.46
2018-10-05T01:41:46.656Z,76.70
2018-10-05T01:44:16.240Z,76.79
2018-10-05T01:46:45.892Z,76.24
2018-10-05T01:49:15.583Z,76.87
2018-10-05T01:51:45.236Z,76.88
2018-10-05T01:54:14.832Z,76.94
2018-10-05T01:56:44.433Z,77.44
2018-10-05T01:59:14.063Z,76.51
2018-10-05T02:01:43.715Z,76.63
2018-10-05T02:04:13.341Z,76.93
2018-10-05T02:06:42.865Z,77.27
2018-10-05T02:09:12.433Z,76.81
2018-10-05T02:11:42.056Z,77.40
2018-10-05T02:14:11.589Z,76.90
2018-10-05T02:16:41.296Z,76.42
2018-10-05T02:19:10.833Z,77.25
2018-10-05T02:21:40.355Z,76.55
2018-10-05T02:24:09.880Z,76.85
2018-10-05T02:26:39.463Z,76.70
2018-10-05T02:29:08.997Z,75.93
2018-10-05T02:31:38.608Z,76.46
2018-10-05T02:34:08.207Z,76.71
2018-10-05T02:36:37.793Z,76.41
2018-10-05T02:39:11.302Z,77.26
2018-10-05T02:41:41.154Z,76.87
2018-10-05T02:44:10.792Z,77.09
2018-10-05T02:46:40.684Z,77.20
2018-10-05T02:49:10.212Z,76.48
2018-10-05T02:51:39.815Z,76.49
2018-10-05T02:54:09.324Z,77.44
2018-10-05T02:56:39.091Z,77.53
2018-10-05T02:59:08.820Z,77.73
2018-10-05T03:01:55.233Z,77.12
2018-10-05T03:04:24.973Z,77.26
2018-10-05T03:06:54.775Z,77.43
2018-10-05T03:09:24.395Z,78.32
2018-10-05T03:11:54.005Z,77.80
2018-10-05T03:14:23.543Z,78.37
2018-10-05T03:16:53.146Z,77.92
2018-10-05T03:19:22.868Z,77.61
2018-10-05T03:21:52.427Z,77.38
2018-10-05T03:24:22.118Z,77.44
2018-10-05T03:26:51.711Z,77.86
2018-10-05T03:29:21.251Z,77.41
2018-10-05T03:31:50.859Z,78.64
2018-10-05T03:34:20.467Z,77.74
2018-10-05T03:36:50.103Z,77.96
2018-10-05T03:39:19.724Z,78.06
2018-10-05T03:41:49.353Z,78.34
2018-10-05T03:44:19.048Z,78.13
2018-10-05T03:46:48.579Z,76.64
2018-10-05T03:49:18.092Z,77.17
2018-10-05T03:51:47.739Z,76.27
2018-10-05T03:54:17.427Z,77.08
2018-10-05T03:56:47.283Z,76.26
2018-10-05T03:59:16.900Z,76.71
2018-10-05T04:01:46.496Z,77.08
2018-10-05T04:04:16.065Z,77.06
2018-10-05T04:06:45.590Z,76.56
2018-10-05T04:09:15.134Z,77.48
2018-10-05T04:11:44.643Z,77.33
2018-10-05T04:14:14.179Z,77.20
2018-10-05T04:16:43.709Z,76.79
2018-10-05T04:19:13.232Z,76.32
2018-10-05T04:21:42.806Z,76.36
2018-10-05T04:24:12.379Z,76.90
2018-10-05T04:26:42.147Z,76.84
2018-10-05T04:29:11.683Z,77.08
2018-10-05T04:31:41.739Z,77.62
2018-10-05T04:34:11.290Z,76.66
2018-10-05T04:36:40.791Z,77.79
2018-10-05T04:39:10.448Z,76.58
2018-10-05T04:41:40.014Z,75.19
2018-10-05T04:44:09.563Z,75.11
2018-10-05T04:46:39.087Z,75.64
2018-10-05T04:49:08.660Z,76.85
2018-10-05T04:51:38.308Z,76.58
2018-10-05T04:54:07.908Z,76.64
2018-10-05T04:56:37.454Z,76.62
2018-10-05T04:59:06.999Z,77.03
2018-10-05T05:01:36.519Z,77.31
2018-10-05T05:04:06.576Z,78.25
2018-10-05T05:06:36.079Z,77.90
2018-10-05T05:09:07.900Z,77.11
2018-10-05T05:11:37.450Z,76.39
2018-10-05T05:14:07.085Z,76.03
2018-10-05T05:16:36.603Z,76.04
2018-10-05T05:19:07.046Z,76.28
2018-10-05T05:21:36.551Z,75.12
2018-10-05T05:24:06.098Z,75.36
2018-10-05T05:26:35.783Z,76.75
2018-10-05T05:29:05.360Z,77.16
2018-10-05T05:31:35.080Z,77.91
2018-10-05T05:34:04.719Z,77.76
2018-10-05T05:36:34.415Z,78.61
2018-10-05T05:39:05.367Z,77.50
2018-10-05T05:41:34.964Z,77.58
2018-10-05T05:44:04.567Z,77.27
2018-10-05T05:46:34.131Z,76.37
2018-10-05T05:49:03.686Z,76.85
2018-10-05T05:51:33.206Z,77.04
2018-10-05T05:54:02.771Z,77.89
2018-10-05T05:56:32.443Z,76.60
2018-10-05T05:59:01.941Z,76.85
2018-10-05T06:01:31.495Z,77.29
2018-10-05T06:04:01.038Z,77.52
2018-10-05T06:06:30.943Z,76.68
2018-10-05T06:09:00.488Z,75.80
2018-10-05T06:11:30.022Z,76.12
2018-10-05T06:13:59.571Z,75.38
2018-10-05T06:16:29.225Z,75.27
2018-10-05T06:18:58.937Z,74.18
2018-10-05T06:21:30.205Z,74.24
2018-10-05T06:23:59.932Z,73.12
2018-10-05T06:26:29.833Z,72.64
2018-10-05T06:28:59.439Z,72.26
2018-10-05T06:31:29.011Z,71.61
2018-10-05T06:33:58.601Z,72.57
2018-10-05T06:36:28.395Z,72.54
2018-10-05T06:38:57.990Z,71.34
2018-10-05T06:41:27.746Z,71.28
2018-10-05T06:43:57.299Z,70.22
2018-10-05T06:46:26.848Z,71.46
2018-10-05T06:48:56.396Z,70.87
2018-10-05T06:51:25.954Z,70.02
2018-10-05T06:53:55.803Z,69.16
2018-10-05T06:56:25.332Z,69.17
2018-10-05T06:58:55.172Z,69.64
2018-10-05T07:01:24.723Z,68.20
2018-10-05T07:03:54.453Z,68.10
2018-10-05T07:06:23.984Z,67.05
2018-10-05T07:08:53.521Z,67.38
2018-10-05T07:11:23.432Z,67.02
2018-10-05T07:13:53.141Z,66.78
2018-10-05T07:16:22.701Z,67.02
2018-10-05T07:18:52.230Z,67.49
2018-10-05T07:21:21.773Z,66.65
2018-10-05T07:23:51.496Z,66.12
2018-10-05T07:26:21.067Z,64.87
2018-10-05T07:28:50.702Z,65.75
2018-10-05T07:31:20.361Z,64.57
2018-10-05T07:33:49.900Z,63.66
2018-10-05T07:36:19.448Z,63.79
2018-10-05T07:38:49.092Z,63.60
2018-10-05T07:41:18.619Z,64.16
2018-10-05T07:43:48.118Z,64.99
2018-10-05T07:46:17.705Z,63.52
2018-10-05T07:48:47.235Z,63.43
2018-10-05T07:51:16.744Z,63.83
2018-10-05T07:53:46.290Z,62.80
2018-10-05T07:56:15.811Z,63.14
2018-10-05T07:58:45.349Z,62.95
2018-10-05T08:01:14.879Z,62.93
2018-10-05T08:03:44.453Z,62.98
2018-10-05T08:06:13.993Z,63.35
2018-10-05T08:08:43.727Z,61.26
2018-10-05T08:11:13.313Z,61.48
2018-10-05T08:13:42.857Z,60.93
2018-10-05T08:16:12.365Z,60.44
2018-10-05T08:18:42.083Z,60.45
2018-10-05T08:21:11.687Z,60.60
2018-10-05T08:23:41.448Z,59.98
2018-10-05T08:26:11.042Z,60.90
2018-10-05T08:28:40.555Z,60.17
2018-10-05T08:31:10.084Z,59.62
2018-10-05T08:33:39.840Z,59.04
2018-10-05T08:36:09.504Z,59.45
2018-10-05T08:38:39.035Z,59.74
2018-10-05T08:41:08.579Z,59.51
2018-10-05T08:43:38.122Z,58.82
2018-10-05T08:46:08.058Z,60.26
2018-10-05T08:48:37.583Z,59.00
2018-10-05T08:51:07.199Z,59.83
2018-10-05T08:53:36.711Z,59.56
2018-10-05T08:56:06.247Z,58.44
2018-10-05T08:58:35.775Z,58.45
2018-10-05T09:01:05.308Z,57.59
2018-10-05T09:03:34.855Z,57.68
2018-10-05T09:06:04.399Z,57.52
2018-10-05T09:08:33.955Z,57.24
2018-10-05T09:11:03.528Z,56.19
2018-10-05T09:13:33.071Z,57.79
2018-10-05T09:16:02.589Z,57.98
2018-10-05T09:18:32.752Z,57.61
2018-10-05T09:21:02.263Z,57.14
2018-10-05T09:23:31.788Z,56.20
2018-10-05T09:26:01.317Z,56.49
2018-10-05T09:28:30.843Z,57.58
2018-10-05T09:31:00.563Z,56.30
2018-10-05T09:33:30.133Z,55.86
2018-10-05T09:35:59.775Z,56.51
2018-10-05T09:38:29.309Z,56.55
2018-10-05T09:40:59.124Z,56.46
2018-10-05T09:43:28.675Z,56.73
2018-10-05T09:45:58.204Z,56.11
2018-10-05T09:48:27.748Z,55.59
2018-10-05T09:50:57.517Z,56.25
2018-10-05T09:53:27.086Z,55.67
2018-10-05T09:55:56.845Z,56.16
2018-10-05T09:58:26.375Z,55.29
2018-10-05T10:01:00.956Z,55.03
2018-10-05T10:03:34.236Z,54.60
2018-10-05T10:06:04.468Z,54.92
2018-10-05T10:08:34.459Z,54.52
2018-10-05T10:11:04.006Z,55.03
2018-10-05T10:13:34.063Z,55.24
2018-10-05T10:16:03.609Z,55.09
2018-10-05T10:18:33.191Z,54.23
2018-10-05T10:21:03.061Z,54.38
2018-10-05T10:23:32.791Z,54.49
2018-10-05T10:26:02.332Z,54.30
2018-10-05T10:28:32.295Z,53.62
2018-10-05T10:31:01.980Z,53.66
2018-10-05T10:33:31.879Z,54.05
2018-10-05T10:36:01.598Z,53.84
2018-10-05T10:38:31.166Z,54.78
2018-10-05T10:41:00.707Z,53.33
2018-10-05T10:43:30.233Z,53.66
2018-10-05T10:45:59.858Z,53.39
2018-10-05T10:48:29.398Z,53.62
2018-10-05T10:50:58.979Z,53.84
2018-10-05T10:53:28.607Z,53.16
2018-10-05T10:55:58.168Z,53.79
2018-10-05T10:58:27.711Z,53.29
2018-10-05T11:00:57.259Z,53.58
2018-10-05T11:03:26.815Z,54.52
2018-10-05T11:05:56.346Z,54.54
2018-10-05T11:08:25.889Z,54.52
2018-10-05T11:10:55.452Z,54.56
2018-10-05T11:13:25.472Z,53.87
2018-10-05T11:15:55.028Z,54.16
2018-10-05T11:18:24.664Z,54.61
2018-10-05T11:20:54.248Z,54.29
2018-10-05T11:23:23.996Z,53.60
2018-10-05T11:25:53.675Z,53.25
2018-10-05T11:28:23.209Z,54.12
2018-10-05T11:30:52.746Z,54.12
2018-10-05T11:33:22.319Z,55.03
2018-10-05T11:35:51.912Z,54.11
2018-10-05T11:38:21.491Z,54.15
2018-10-05T11:40:51.364Z,54.11
2018-10-05T11:43:20.976Z,54.69
2018-10-05T11:45:51.175Z,55.11
2018-10-05T11:48:20.735Z,54.42
2018-10-05T11:50:50.323Z,54.62
2018-10-05T11:53:19.888Z,55.12
2018-10-05T11:55:49.459Z,54.84
2018-10-05T11:58:19.344Z,55.20
2018-10-05T12:00:48.930Z,55.86
2018-10-05T12:03:18.511Z,55.96
2018-10-05T12:05:48.069Z,55.47
2018-10-05T12:08:17.969Z,54.04
2018-10-05T12:10:47.511Z,54.34
2018-10-05T12:13:17.068Z,54.45
2018-10-05T12:15:46.611Z,54.27
2018-10-05T12:18:16.288Z,54.74
2018-10-05T12:20:45.821Z,54.54
2018-10-05T12:23:15.344Z,54.52
2018-10-05T12:25:45.755Z,54.40
2018-10-05T12:28:15.384Z,55.42
2018-10-05T12:33:13.574Z,54.15
2018-10-05T12:35:43.252Z,53.31
2018-10-05T12:38:12.799Z,54.04
2018-10-05T12:40:42.457Z,54.21
2018-10-05T12:43:12.201Z,53.99
2018-10-05T12:45:41.894Z,55.41
2018-10-05T12:48:11.447Z,54.89
2018-10-05T12:50:41.018Z,54.23
2018-10-05T12:53:10.575Z,53.58
2018-10-05T12:55:40.139Z,53.37
2018-10-05T12:58:09.779Z,54.22
2018-10-05T13:00:39.588Z,53.75
2018-10-05T13:03:09.118Z,53.79
2018-10-05T13:05:38.738Z,53.15
2018-10-05T13:08:08.318Z,54.19
2018-10-05T13:10:37.890Z,53.68
2018-10-05T13:13:07.755Z,54.32
2018-10-05T13:15:37.496Z,53.16
2018-10-05T13:18:07.397Z,53.69
2018-10-05T13:20:36.924Z,53.77
2018-10-05T13:23:07.104Z,53.33
2018-10-05T13:25:36.643Z,53.63
2018-10-05T13:28:06.190Z,53.09
2018-10-05T13:30:35.773Z,53.84
2018-10-05T13:33:05.292Z,53.30
2018-10-05T13:35:34.884Z,52.66
2018-10-05T13:38:04.452Z,53.48
2018-10-05T13:40:34.414Z,52.28
2018-10-05T13:43:04.021Z,53.31
2018-10-05T13:45:35.315Z,53.19
2018-10-05T13:48:04.863Z,53.53
2018-10-05T13:50:34.384Z,53.62
2018-10-05T13:53:04.090Z,53.18
2018-10-05T13:55:33.635Z,52.95
2018-10-05T13:58:03.178Z,53.20
2018-10-05T14:00:32.749Z,53.52
2018-10-05T14:03:02.284Z,54.08
2018-10-05T14:05:32.176Z,53.52
2018-10-05T14:08:02.075Z,53.36
2018-10-05T14:10:31.636Z,53.10
2018-10-05T14:13:01.364Z,52.62
2018-10-05T14:15:30.928Z,52.72
2018-10-05T14:18:00.495Z,52.41
2018-10-05T14:20:30.050Z,52.87
2018-10-05T14:22:59.822Z,53.00
2018-10-05T14:25:29.387Z,52.56
2018-10-05T14:27:59.137Z,52.53
2018-10-05T14:30:28.728Z,52.36
2018-10-05T14:32:58.300Z,53.18
2018-10-05T14:35:27.843Z,52.96
2018-10-05T14:37:57.397Z,52.79
2018-10-05T14:40:27.149Z,53.15
2018-10-05T14:42:56.935Z,53.27
2018-10-05T14:45:26.527Z,52.83
2018-10-05T14:47:56.107Z,53.57
2018-10-05T14:50:25.667Z,53.01
2018-10-05T14:52:55.340Z,52.65
2018-10-05T14:55:24.897Z,52.61
2018-10-05T14:57:54.720Z,52.23
2018-10-05T15:00:24.275Z,52.85
2018-10-05T15:02:53.859Z,53.60
2018-10-05T15:05:23.403Z,53.79
2018-10-05T15:07:53.041Z,53.34
2018-10-05T15:10:22.624Z,53.14
2018-10-05T15:12:52.380Z,53.34
2018-10-05T15:15:22.024Z,53.41
2018-10-05T15:17:51.625Z,53.73
2018-10-05T15:20:21.560Z,54.29
2018-10-05T15:22:51.460Z,53.80
2018-10-05T15:25:21.077Z,54.12
2018-10-05T15:27:51.261Z,54.24
2018-10-05T15:30:20.811Z,54.10
2018-10-05T15:32:50.501Z,53.72
2018-10-05T15:35:20.540Z,54.28
2018-10-05T15:37:50.144Z,53.67
2018-10-05T15:40:19.737Z,54.66
2018-10-05T15:42:49.281Z,54.13
2018-10-05T15:45:18.873Z,54.45
2018-10-05T15:47:48.424Z,55.11
2018-10-05T15:50:18.379Z,55.24
2018-10-05T15:52:47.961Z,54.51
2018-10-05T15:55:17.747Z,54.96
2018-10-05T15:57:47.278Z,55.09
2018-10-05T16:00:16.854Z,54.52
2018-10-05T16:02:46.407Z,55.23
2018-10-05T16:05:16.120Z,55.78
2018-10-05T16:07:45.861Z,55.74
2018-10-05T16:10:15.417Z,55.12
2018-10-05T16:12:45.261Z,55.47
2018-10-05T16:15:15.075Z,56.23
2018-10-05T16:17:44.895Z,56.28
2018-10-05T16:20:14.514Z,56.11
2018-10-05T16:22:44.148Z,55.99
2018-10-05T16:25:13.753Z,55.96
2018-10-05T16:27:43.523Z,55.68
2018-10-05T16:30:13.131Z,56.85
2018-10-05T16:32:42.720Z,56.54
2018-10-05T16:35:12.271Z,57.26
2018-10-05T16:37:41.844Z,57.94
2018-10-05T16:40:11.399Z,58.12
2018-10-05T16:42:40.965Z,58.46
2018-10-05T16:45:10.540Z,59.03
2018-10-05T16:47:40.175Z,59.45
2018-10-05T16:50:09.813Z,59.68
2018-10-05T16:52:39.403Z,59.85
2018-10-05T16:55:09.543Z,59.86
2018-10-05T16:57:39.064Z,60.51
2018-10-05T17:00:08.935Z,60.88
2018-10-05T17:02:38.521Z,61.38
2018-10-05T17:05:08.168Z,61.07
2018-10-05T17:07:37.742Z,61.28
2018-10-05T17:10:07.455Z,62.31
2018-10-05T17:12:37.022Z,62.40
2018-10-05T17:15:07.619Z,62.30
2018-10-05T17:17:37.175Z,63.10
2018-10-05T17:20:06.869Z,62.61
2018-10-05T17:22:36.527Z,62.98
2018-10-05T17:25:06.636Z,63.71
2018-10-05T17:27:36.235Z,63.69
2018-10-05T17:30:06.302Z,63.64
2018-10-05T17:32:35.887Z,64.87
2018-10-05T17:35:05.548Z,64.68
2018-10-05T17:37:35.235Z,64.67
2018-10-05T17:40:05.407Z,65.22
2018-10-05T17:42:34.983Z,65.61
2018-10-05T17:45:04.703Z,65.36
2018-10-05T17:47:34.444Z,66.18
2018-10-05T17:50:04.591Z,65.94
2018-10-05T17:52:34.231Z,66.30
2018-10-05T17:55:04.108Z,66.18
2018-10-05T17:57:33.934Z,67.01
2018-10-05T18:00:03.539Z,67.08
2018-10-05T18:02:33.133Z,67.68
2018-10-05T18:05:02.802Z,67.83
2018-10-05T18:07:32.388Z,67.81
2018-10-05T18:10:02.020Z,67.83
2018-10-05T18:12:31.703Z,68.50
2018-10-05T18:15:01.286Z,69.40
2018-10-05T18:17:31.423Z,69.80
2018-10-05T18:20:01.035Z,68.86
2018-10-05T18:22:30.615Z,69.38
2018-10-05T18:25:00.209Z,69.30
2018-10-05T18:27:30.116Z,70.09
2018-10-05T18:29:59.760Z,69.91
2018-10-05T18:32:29.309Z,70.30
2018-10-05T18:34:58.875Z,70.72
2018-10-05T18:37:28.751Z,70.59
2018-10-05T18:39:58.317Z,71.41
2018-10-05T18:42:27.913Z,70.38
2018-10-05T18:44:57.538Z,70.49
2018-10-05T18:47:27.416Z,70.80
2018-10-05T18:49:57.076Z,71.40
2018-10-05T18:52:26.690Z,71.35
2018-10-05T18:54:56.520Z,71.94
2018-10-05T18:57:26.460Z,71.93
2018-10-05T18:59:56.052Z,72.56
2018-10-05T19:02:26.038Z,72.52
2018-10-05T19:04:55.924Z,72.09
2018-10-05T19:07:25.835Z,72.41
2018-10-05T19:09:55.479Z,72.98
2018-10-05T19:12:25.136Z,72.90
2018-10-05T19:14:54.759Z,72.93
2018-10-05T19:17:24.438Z,73.30
2018-10-05T19:19:54.056Z,73.51
2018-10-05T19:22:23.675Z,73.38
2018-10-05T19:24:53.240Z,73.46
2018-10-05T19:27:22.845Z,73.25
2018-10-05T19:29:52.428Z,73.79
2018-10-05T19:32:22.030Z,72.97
2018-10-05T19:34:51.635Z,73.67
2018-10-05T19:37:21.259Z,73.60
2018-10-05T19:39:51.175Z,73.76
2018-10-05T19:42:20.753Z,74.03
2018-10-05T19:44:50.313Z,74.32
2018-10-05T19:47:19.892Z,74.35
2018-10-05T19:49:49.478Z,73.99
2018-10-05T19:52:19.032Z,74.19
2018-10-05T19:54:48.644Z,74.21
2018-10-05T19:57:18.235Z,74.92
2018-10-05T19:59:47.817Z,74.70
2018-10-05T20:02:17.524Z,74.51
2018-10-05T20:04:47.107Z,74.91
2018-10-05T20:07:16.714Z,74.70
2018-10-05T20:09:46.295Z,75.17
2018-10-05T20:12:16.104Z,75.19
2018-10-05T20:14:45.705Z,75.57
2018-10-05T20:17:15.330Z,75.54
2018-10-05T20:19:44.971Z,75.25
2018-10-05T20:22:14.787Z,75.65
2018-10-05T20:24:44.466Z,75.49
2018-10-05T20:27:14.111Z,75.52
2018-10-05T20:29:43.669Z,75.20
2018-10-05T20:32:13.253Z,75.40
2018-10-05T20:34:42.795Z,75.34
2018-10-05T20:37:12.484Z,75.91
2018-10-05T20:39:42.105Z,76.03
2018-10-05T20:42:12.056Z,75.95
2018-10-05T20:44:41.820Z,76.18
2018-10-05T20:47:11.403Z,75.62
2018-10-05T20:49:40.968Z,75.77
2018-10-05T20:52:10.545Z,75.96
2018-10-05T20:54:40.167Z,76.56
2018-10-05T20:57:09.687Z,76.30
2018-10-05T20:59:39.291Z,76.58
2018-10-05T21:02:08.978Z,77.02
2018-10-05T21:04:38.920Z,76.98
2018-10-05T21:07:08.557Z,76.38
2018-10-05T21:09:38.200Z,76.52
2018-10-05T21:12:08.264Z,76.37
2018-10-05T21:14:37.852Z,76.82
2018-10-05T21:17:07.767Z,76.74
2018-10-05T21:19:37.505Z,77.19
2018-10-05T21:22:07.487Z,76.70
2018-10-05T21:24:37.035Z,76.79
2018-10-05T21:27:06.620Z,76.64
2018-10-05T21:29:36.188Z,76.72
2018-10-05T21:32:05.750Z,77.09
2018-10-05T21:34:35.339Z,77.13
2018-10-05T21:37:04.930Z,77.38
2018-10-05T21:39:34.518Z,77.37
2018-10-05T21:42:04.475Z,77.14
2018-10-05T21:44:34.040Z,77.06
2018-10-05T21:47:03.645Z,77.14
2018-10-05T21:49:33.199Z,77.48
2018-10-05T21:52:02.800Z,77.40
2018-10-05T21:54:32.400Z,77.83
2018-10-05T21:57:01.948Z,77.65
2018-10-05T21:59:31.551Z,77.72
2018-10-05T22:02:01.101Z,78.02
2018-10-05T22:04:30.913Z,78.04
2018-10-05T22:07:00.556Z,77.94
2018-10-05T22:09:30.127Z,77.93
2018-10-05T22:11:59.719Z,77.89
2018-10-05T22:14:29.269Z,78.12
2018-10-05T22:16:59.105Z,77.81
2018-10-05T22:19:28.691Z,77.88
2018-10-05T22:21:58.446Z,77.86
2018-10-05T22:24:28.020Z,78.23
2018-10-05T22:26:57.571Z,78.52
2018-10-05T22:29:27.511Z,78.83
2018-10-05T22:31:57.095Z,78.78
2018-10-05T22:34:26.658Z,78.21
2018-10-05T22:36:56.227Z,78.61
2018-10-05T22:39:25.799Z,78.56
2018-10-05T22:41:58.435Z,78.56
2018-10-05T22:44:27.953Z,78.71
2018-10-05T22:46:58.052Z,78.32
2018-10-05T22:49:27.640Z,78.42
2018-10-05T22:51:57.267Z,78.56
2018-10-05T22:54:26.826Z,78.10
2018-10-05T22:56:56.421Z,78.25
2018-10-05T22:59:26.619Z,78.53
2018-10-05T23:01:56.147Z,78.26
2018-10-05T23:04:25.698Z,78.43
2018-10-05T23:06:55.456Z,78.31
2018-10-05T23:09:25.039Z,78.20
2018-10-05T23:11:54.616Z,78.12
2018-10-05T23:14:24.219Z,78.68
2018-10-05T23:16:53.815Z,79.05
2018-10-05T23:19:23.361Z,78.73
2018-10-05T23:21:52.963Z,78.99
2018-10-05T23:24:22.491Z,78.79
2018-10-05T23:26:52.072Z,78.87
2018-10-05T23:29:21.639Z,79.24
2018-10-05T23:31:51.213Z,79.15
2018-10-05T23:34:20.783Z,79.07
2018-10-05T23:36:50.363Z,79.06
2018-10-05T23:39:19.907Z,78.81
2018-10-05T23:41:49.478Z,78.83
2018-10-05T23:44:19.219Z,78.49
2018-10-05T23:46:48.757Z,78.54
2018-10-05T23:49:18.326Z,78.66
2018-10-05T23:51:48.182Z,78.94
2018-10-05T23:54:17.733Z,78.79
2018-10-05T23:56:47.312Z,78.98
2018-10-05T23:59:16.858Z,78.84
